createdAt,value
2023-05-19T00:02:34.847Z,100002.84
2023-05-19T00:07:37.215Z,100009.75
2023-05-19T00:12:38.915Z,100003.78
2023-05-19T00:17:40.894Z,100012.41
2023-05-19T00:22:42.899Z,100014.13
2023-05-19T00:27:44.909Z,100030.91
2023-05-19T00:32:46.928Z,100037.41
2023-05-19T00:37:49.082Z,100050.13
2023-05-19T00:42:51.063Z,100048.72
2023-05-19T00:47:53.020Z,100056.50
2023-05-19T00:52:55.835Z,100055.38
2023-05-19T00:57:57.787Z,100057.81
2023-05-19T01:02:59.866Z,100055.63
2023-05-19T01:08:01.826Z,100048.06
2023-05-19T01:13:04.121Z,100054.94
2023-05-19T01:18:10.086Z,100064.91
2023-05-19T01:23:32.701Z,100074.09
2023-05-19T01:29:03.185Z,100087.69
2023-05-19T01:34:05.130Z,100097.25
2023-05-19T01:39:07.102Z,100108.97
2023-05-19T01:44:09.327Z,100117.16
2023-05-19T01:49:11.506Z,100111.94
2023-05-19T01:54:13.520Z,100120.81
2023-05-19T01:59:42.378Z,100126.19
2023-05-19T02:04:48.000Z,100127.59
2023-05-19T02:10:27.972Z,100121.75
2023-05-19T02:15:32.294Z,100125.63
2023-05-19T02:20:34.532Z,100122.06
2023-05-19T02:25:36.819Z,100114.13
2023-05-19T02:30:38.764Z,100122.00
2023-05-19T02:35:40.633Z,100119.72
2023-05-19T02:40:42.592Z,100123.66
2023-05-19T02:45:44.641Z,100132.13
2023-05-19T02:50:46.637Z,100136.56
2023-05-19T02:55:48.570Z,100135.00
2023-05-19T03:00:50.666Z,100139.50
2023-05-19T03:05:52.670Z,100142.25
2023-05-19T03:10:54.751Z,100150.00
2023-05-19T03:15:56.745Z,100156.31
2023-05-19T03:21:00.325Z,100150.94
2023-05-19T03:26:02.369Z,100153.34
2023-05-19T03:31:04.329Z,100164.00
2023-05-19T03:36:07.101Z,100167.59
2023-05-19T03:41:09.011Z,100165.06
2023-05-19T03:46:11.026Z,100173.91
2023-05-19T03:51:13.152Z,100175.06
2023-05-19T03:56:15.131Z,100175.41
2023-05-19T04:01:17.149Z,100176.25
2023-05-19T04:06:19.185Z,100183.91
2023-05-19T04:11:21.245Z,100176.75
2023-05-19T04:16:23.398Z,100183.59
2023-05-19T04:21:25.589Z,100186.31
2023-05-19T04:26:27.871Z,100181.88
2023-05-19T04:31:29.808Z,100184.66
2023-05-19T04:36:31.879Z,100184.03
2023-05-19T04:41:33.978Z,100191.84
2023-05-19T04:46:35.925Z,100194.63
2023-05-19T04:51:38.128Z,100188.59
2023-05-19T04:56:39.986Z,100189.81
2023-05-19T05:01:41.857Z,100185.78
2023-05-19T05:06:43.882Z,100185.75
2023-05-19T05:11:45.942Z,100191.28
2023-05-19T05:16:48.245Z,100187.41
2023-05-19T05:21:51.178Z,100197.47
2023-05-19T05:26:54.146Z,100206.38
2023-05-19T05:31:56.139Z,100205.59
2023-05-19T05:36:58.056Z,100204.59
2023-05-19T05:41:59.971Z,100203.69
2023-05-19T05:47:03.077Z,100206.50
2023-05-19T05:52:06.762Z,100202.22
2023-05-19T05:57:09.760Z,100205.66
2023-05-19T06:02:11.695Z,100218.38
2023-05-19T06:07:13.664Z,100227.13
2023-05-19T06:12:16.002Z,100223.03
2023-05-19T06:17:17.744Z,100222.84
2023-05-19T06:22:19.547Z,100218.50
2023-05-19T06:27:21.471Z,100213.09
2023-05-19T06:32:23.602Z,100219.31
2023-05-19T06:37:25.525Z,100212.56
2023-05-19T06:42:27.412Z,100217.72
2023-05-19T06:47:29.390Z,100229.34
2023-05-19T06:52:31.341Z,100223.50
2023-05-19T06:57:33.271Z,100223.97
2023-05-19T07:02:35.336Z,100233.97
2023-05-19T07:07:37.278Z,100232.47
2023-05-19T07:12:39.197Z,100239.69
2023-05-19T07:17:41.112Z,100235.94
2023-05-19T07:22:43.086Z,100238.03
2023-05-19T07:27:45.141Z,100229.53
2023-05-19T07:32:47.008Z,100230.28
2023-05-19T07:37:49.701Z,100244.59
2023-05-19T07:42:51.945Z,100234.06
2023-05-19T07:47:54.202Z,100253.09
2023-05-19T07:52:56.415Z,100241.41
2023-05-19T07:57:58.346Z,100248.22
2023-05-19T08:03:00.259Z,100234.78
2023-05-19T08:08:02.592Z,100248.13
2023-05-19T08:13:04.612Z,100237.88
2023-05-19T08:18:06.606Z,100248.00
2023-05-19T08:23:08.339Z,100249.66
2023-05-19T08:28:10.442Z,100236.50
2023-05-19T08:33:12.624Z,100247.78
2023-05-19T08:38:14.431Z,100247.25
2023-05-19T08:43:16.364Z,100244.75
2023-05-19T08:48:18.488Z,100237.72
2023-05-19T08:53:32.485Z,100229.63
2023-05-19T08:58:36.082Z,100225.38
2023-05-19T09:03:38.121Z,100224.25
2023-05-19T09:08:40.418Z,100220.63
2023-05-19T09:13:42.258Z,100219.50
2023-05-19T09:18:56.939Z,100218.66
2023-05-19T09:24:03.865Z,100207.84
2023-05-19T09:29:16.213Z,100204.53
2023-05-19T09:34:18.731Z,100201.06
2023-05-19T09:39:21.574Z,100202.66
2023-05-19T09:44:24.206Z,100194.09
2023-05-19T09:49:27.534Z,100203.66
2023-05-19T09:54:29.953Z,100189.97
2023-05-19T09:59:33.717Z,100190.34
2023-05-19T10:04:36.193Z,100181.59
2023-05-19T10:09:38.132Z,100185.41
2023-05-19T10:14:40.092Z,100184.78
2023-05-19T10:19:41.814Z,100181.59
2023-05-19T10:24:43.763Z,100171.66
2023-05-19T10:29:46.293Z,100174.75
2023-05-19T10:35:06.349Z,100169.41
2023-05-19T10:40:12.166Z,100184.53
2023-05-19T10:45:18.887Z,100176.72
2023-05-19T10:50:20.979Z,100187.56
2023-05-19T10:56:01.041Z,100186.63
2023-05-19T11:01:03.113Z,100181.53
2023-05-19T11:06:29.780Z,100183.53
2023-05-19T11:11:55.042Z,100181.19
2023-05-19T11:16:57.707Z,100179.19
2023-05-19T11:22:10.056Z,100183.28
2023-05-19T11:27:31.838Z,100175.97
2023-05-19T11:32:35.489Z,100185.88
2023-05-19T11:37:37.541Z,100182.94
2023-05-19T11:42:39.161Z,100191.63
2023-05-19T11:47:56.503Z,100185.06
2023-05-19T11:53:03.439Z,100196.06
2023-05-19T11:58:06.102Z,100191.63
2023-05-19T12:03:08.741Z,100182.00
2023-05-19T12:08:14.263Z,100195.22
2023-05-19T12:13:16.435Z,100198.84
2023-05-19T12:18:18.231Z,100198.25
2023-05-19T12:23:20.184Z,100198.00
2023-05-19T12:28:21.957Z,100202.56
2023-05-19T12:33:23.894Z,100194.41
2023-05-19T12:38:25.995Z,100197.50
2023-05-19T12:43:28.058Z,100212.81
2023-05-19T12:48:30.037Z,100203.28
2023-05-19T12:53:32.894Z,100194.03
2023-05-19T12:58:35.004Z,100200.09
2023-05-19T13:03:40.826Z,100198.34
2023-05-19T13:08:42.905Z,100199.78
2023-05-19T13:13:45.023Z,100209.09
2023-05-19T13:18:47.080Z,100198.16
2023-05-19T13:23:48.817Z,100203.44
2023-05-19T13:28:50.644Z,100208.41
2023-05-19T13:33:52.699Z,100196.94
2023-05-19T13:38:54.710Z,100198.50
2023-05-19T13:43:59.761Z,100194.16
2023-05-19T13:49:01.870Z,100196.75
2023-05-19T13:54:03.606Z,100185.41
2023-05-19T13:59:05.517Z,100188.00
2023-05-19T14:04:07.625Z,100196.00
2023-05-19T14:09:09.681Z,100196.97
2023-05-19T14:14:11.817Z,100194.28
2023-05-19T14:19:14.081Z,100180.59
2023-05-19T14:24:16.021Z,100178.53
2023-05-19T14:29:19.457Z,100179.81
2023-05-19T14:34:21.442Z,100190.09
2023-05-19T14:39:23.420Z,100178.47
2023-05-19T14:44:30.068Z,100174.56
2023-05-19T14:49:32.042Z,100169.75
2023-05-19T14:54:34.109Z,100170.06
2023-05-19T14:59:38.972Z,100169.41
2023-05-19T15:04:40.801Z,100173.88
2023-05-19T15:09:42.788Z,100170.16
2023-05-19T15:14:44.546Z,100174.19
2023-05-19T15:19:46.562Z,100171.97
2023-05-19T15:24:58.101Z,100175.91
2023-05-19T15:30:00.215Z,100183.47
2023-05-19T15:35:02.056Z,100184.53
2023-05-19T15:40:06.039Z,100184.38
2023-05-19T15:45:08.802Z,100188.66
2023-05-19T15:50:11.196Z,100193.34
2023-05-19T15:55:13.186Z,100200.59
2023-05-19T16:00:15.505Z,100194.47
2023-05-19T16:05:17.783Z,100215.69
2023-05-19T16:10:19.530Z,100216.22
2023-05-19T16:15:22.147Z,100223.56
2023-05-19T16:20:24.145Z,100235.00
2023-05-19T16:25:26.121Z,100234.50
2023-05-19T16:30:28.145Z,100248.53
2023-05-19T16:35:30.199Z,100255.03
2023-05-19T16:40:32.553Z,100259.78
2023-05-19T16:45:34.888Z,100265.22
2023-05-19T16:50:37.292Z,100272.81
2023-05-19T16:55:39.558Z,100281.31
2023-05-19T17:00:41.506Z,100281.91
2023-05-19T17:05:43.516Z,100286.56
2023-05-19T17:10:45.580Z,100291.88
2023-05-19T17:15:47.585Z,100300.50
2023-05-19T17:20:49.561Z,100293.53
2023-05-19T17:25:54.654Z,100312.69
2023-05-19T17:30:56.695Z,100302.53
2023-05-19T17:35:58.768Z,100311.22
2023-05-19T17:41:01.470Z,100318.66
2023-05-19T17:46:03.902Z,100327.09
2023-05-19T17:51:06.208Z,100318.09
2023-05-19T17:56:08.801Z,100335.25
2023-05-19T18:01:11.037Z,100333.94
2023-05-19T18:06:12.995Z,100335.94
2023-05-19T18:11:15.285Z,100345.94
2023-05-19T18:16:17.395Z,100340.06
2023-05-19T18:21:19.447Z,100349.06
2023-05-19T18:26:21.428Z,100358.94
2023-05-19T18:31:23.492Z,100367.97
2023-05-19T18:36:25.579Z,100369.03
2023-05-19T18:41:27.832Z,100364.25
2023-05-19T18:46:31.002Z,100376.78
2023-05-19T18:51:33.043Z,100378.03
2023-05-19T18:56:34.943Z,100370.38
2023-05-19T19:01:37.404Z,100368.00
2023-05-19T19:06:40.174Z,100381.38
2023-05-19T19:11:42.963Z,100381.84
2023-05-19T19:16:46.351Z,100381.91
2023-05-19T19:21:48.421Z,100383.97
2023-05-19T19:26:50.673Z,100386.09
2023-05-19T19:31:52.763Z,100377.59
2023-05-19T19:36:54.856Z,100389.09
2023-05-19T19:41:56.854Z,100399.78
2023-05-19T19:46:58.962Z,100403.41
2023-05-19T19:52:01.100Z,100393.81
2023-05-19T19:57:03.077Z,100398.28
2023-05-19T20:02:05.220Z,100399.16
2023-05-19T20:07:07.306Z,100399.13
2023-05-19T20:12:09.350Z,100397.66
2023-05-19T20:17:11.343Z,100397.53
2023-05-19T20:22:13.383Z,100395.72
2023-05-19T20:27:15.396Z,100408.06
2023-05-19T20:32:17.406Z,100416.75
2023-05-19T20:37:19.500Z,100420.28
2023-05-19T20:42:21.469Z,100423.69
2023-05-19T20:47:23.639Z,100425.19
2023-05-19T20:52:25.688Z,100421.53
2023-05-19T20:57:28.925Z,100413.41
2023-05-19T21:02:31.236Z,100415.13
2023-05-19T21:07:33.237Z,100422.25
2023-05-19T21:12:35.203Z,100423.16
2023-05-19T21:17:37.405Z,100422.47
2023-05-19T21:22:39.426Z,100427.66
2023-05-19T21:27:41.435Z,100432.09
2023-05-19T21:32:43.519Z,100421.78
2023-05-19T21:37:45.699Z,100428.88
2023-05-19T21:42:47.639Z,100430.41
2023-05-19T21:47:49.648Z,100425.03
2023-05-19T21:52:51.751Z,100433.94
2023-05-19T21:57:53.749Z,100429.53
2023-05-19T22:02:55.977Z,100416.88
2023-05-19T22:07:58.313Z,100423.00
2023-05-19T22:13:00.360Z,100418.50
2023-05-19T22:18:02.355Z,100418.59
2023-05-19T22:23:04.624Z,100427.53
2023-05-19T22:28:06.742Z,100426.34
2023-05-19T22:33:09.127Z,100427.94
2023-05-19T22:38:11.119Z,100424.38
2023-05-19T22:43:13.343Z,100423.78
2023-05-19T22:48:15.352Z,100427.47
2023-05-19T22:53:17.396Z,100419.63
2023-05-19T22:58:19.331Z,100415.94
2023-05-19T23:03:21.374Z,100416.81
2023-05-19T23:08:23.439Z,100415.88
2023-05-19T23:13:25.459Z,100415.09
2023-05-19T23:18:27.555Z,100413.47
2023-05-19T23:23:29.528Z,100413.34
2023-05-19T23:28:31.483Z,100410.19
2023-05-19T23:33:33.466Z,100410.94
2023-05-19T23:38:36.017Z,100405.19
2023-05-19T23:43:38.049Z,100404.31
2023-05-19T23:48:40.080Z,100398.09
2023-05-19T23:53:42.037Z,100398.81
2023-05-19T23:58:44.017Z,100397.16
